sensor_id;sensor_type;location;lat;lon;timestamp;P1;durP1;ratioP1;P2;durP2;ratioP2
9334;SDS011;4706;41.844;26.082;2023-05-10T00:02:25;6.57;;;5.38;;
9334;SDS011;4706;41.844;26.082;2023-05-10T00:04:50;6.53;;;5.80;;
9334;SDS011;4706;41.844;26.082;2023-05-10T00:07:16;9.32;;;6.65;;
9334;SDS011;4706;41.844;26.082;2023-05-10T00:09:42;6.97;;;5.97;;
9334;SDS011;4706;41.844;26.082;2023-05-10T00:12:08;7.15;;;6.45;;
9334;SDS011;4706;41.844;26.082;2023-05-10T00:14:34;7.05;;;6.10;;
9334;SDS011;4706;41.844;26.082;2023-05-10T00:16:59;6.72;;;6.03;;
9334;SDS011;4706;41.844;26.082;2023-05-10T00:19:25;6.70;;;5.95;;
9334;SDS011;4706;41.844;26.082;2023-05-10T00:21:50;6.38;;;5.78;;
9334;SDS011;4706;41.844;26.082;2023-05-10T00:24:16;6.20;;;5.55;;
9334;SDS011;4706;41.844;26.082;2023-05-10T00:26:41;7.82;;;5.80;;
9334;SDS011;4706;41.844;26.082;2023-05-10T00:29:07;8.30;;;6.40;;
9334;SDS011;4706;41.844;26.082;2023-05-10T00:31:32;6.60;;;6.00;;
9334;SDS011;4706;41.844;26.082;2023-05-10T00:33:58;6.50;;;5.90;;
9334;SDS011;4706;41.844;26.082;2023-05-10T00:36:24;6.57;;;6.00;;
9334;SDS011;4706;41.844;26.082;2023-05-10T00:38:49;6.47;;;5.53;;
9334;SDS011;4706;41.844;26.082;2023-05-10T00:41:15;6.40;;;5.80;;
9334;SDS011;4706;41.844;26.082;2023-05-10T00:43:40;7.68;;;6.15;;
9334;SDS011;4706;41.844;26.082;2023-05-10T00:46:06;8.65;;;6.18;;
9334;SDS011;4706;41.844;26.082;2023-05-10T00:48:32;6.50;;;5.90;;
9334;SDS011;4706;41.844;26.082;2023-05-10T00:50:58;7.05;;;6.35;;
9334;SDS011;4706;41.844;26.082;2023-05-10T00:53:24;7.22;;;5.22;;
9334;SDS011;4706;41.844;26.082;2023-05-10T00:55:49;6.30;;;5.60;;
9334;SDS011;4706;41.844;26.082;2023-05-10T00:58:16;6.70;;;5.53;;
9334;SDS011;4706;41.844;26.082;2023-05-10T01:00:42;7.63;;;5.72;;
9334;SDS011;4706;41.844;26.082;2023-05-10T01:03:11;6.72;;;5.80;;
9334;SDS011;4706;41.844;26.082;2023-05-10T01:05:37;6.88;;;6.00;;
9334;SDS011;4706;41.844;26.082;2023-05-10T01:08:03;6.45;;;5.65;;
9334;SDS011;4706;41.844;26.082;2023-05-10T01:10:28;8.48;;;5.95;;
9334;SDS011;4706;41.844;26.082;2023-05-10T01:12:54;6.88;;;5.93;;
9334;SDS011;4706;41.844;26.082;2023-05-10T01:15:20;7.05;;;6.35;;
9334;SDS011;4706;41.844;26.082;2023-05-10T01:17:47;9.18;;;6.68;;
9334;SDS011;4706;41.844;26.082;2023-05-10T01:20:14;9.82;;;7.03;;
9334;SDS011;4706;41.844;26.082;2023-05-10T01:22:48;6.28;;;5.78;;
9334;SDS011;4706;41.844;26.082;2023-05-10T01:36:31;7.18;;;6.13;;
9334;SDS011;4706;41.844;26.082;2023-05-10T01:39:11;7.88;;;6.40;;
9334;SDS011;4706;41.844;26.082;2023-05-10T01:41:48;6.82;;;6.22;;
9334;SDS011;4706;41.844;26.082;2023-05-10T01:44:20;6.30;;;5.80;;
9334;SDS011;4706;41.844;26.082;2023-05-10T01:47:03;6.70;;;5.75;;
9334;SDS011;4706;41.844;26.082;2023-05-10T01:49:33;6.95;;;6.00;;
9334;SDS011;4706;41.844;26.082;2023-05-10T01:52:09;7.32;;;6.13;;
9334;SDS011;4706;41.844;26.082;2023-05-10T01:54:38;6.07;;;5.53;;
9334;SDS011;4706;41.844;26.082;2023-05-10T01:57:08;6.70;;;6.05;;
9334;SDS011;4706;41.844;26.082;2023-05-10T01:59:37;6.93;;;6.22;;
9334;SDS011;4706;41.844;26.082;2023-05-10T02:02:07;6.65;;;5.95;;
9334;SDS011;4706;41.844;26.082;2023-05-10T02:04:37;6.95;;;6.35;;
9334;SDS011;4706;41.844;26.082;2023-05-10T02:07:04;7.38;;;6.68;;
9334;SDS011;4706;41.844;26.082;2023-05-10T02:09:32;6.78;;;6.15;;
9334;SDS011;4706;41.844;26.082;2023-05-10T02:11:59;6.40;;;5.90;;
9334;SDS011;4706;41.844;26.082;2023-05-10T02:14:28;7.57;;;6.00;;
9334;SDS011;4706;41.844;26.082;2023-05-10T02:16:55;7.32;;;5.80;;
9334;SDS011;4706;41.844;26.082;2023-05-10T02:19:23;8.07;;;5.97;;
9334;SDS011;4706;41.844;26.082;2023-05-10T02:21:50;10.85;;;6.25;;
9334;SDS011;4706;41.844;26.082;2023-05-10T02:24:16;7.63;;;6.07;;
9334;SDS011;4706;41.844;26.082;2023-05-10T02:26:44;6.75;;;6.15;;
9334;SDS011;4706;41.844;26.082;2023-05-10T02:29:12;8.98;;;6.38;;
9334;SDS011;4706;41.844;26.082;2023-05-10T02:31:39;6.57;;;5.97;;
9334;SDS011;4706;41.844;26.082;2023-05-10T02:34:08;9.68;;;7.70;;
9334;SDS011;4706;41.844;26.082;2023-05-10T02:36:36;9.00;;;6.50;;
9334;SDS011;4706;41.844;26.082;2023-05-10T02:39:03;8.63;;;6.97;;
9334;SDS011;4706;41.844;26.082;2023-05-10T02:41:31;6.85;;;5.78;;
9334;SDS011;4706;41.844;26.082;2023-05-10T02:43:59;6.68;;;6.03;;
9334;SDS011;4706;41.844;26.082;2023-05-10T02:46:26;6.95;;;6.25;;
9334;SDS011;4706;41.844;26.082;2023-05-10T02:48:51;7.18;;;6.40;;
9334;SDS011;4706;41.844;26.082;2023-05-10T02:51:17;9.48;;;6.95;;
9334;SDS011;4706;41.844;26.082;2023-05-10T02:53:45;8.55;;;7.70;;
9334;SDS011;4706;41.844;26.082;2023-05-10T02:56:23;7.90;;;7.10;;
9334;SDS011;4706;41.844;26.082;2023-05-10T02:58:50;7.97;;;7.18;;
9334;SDS011;4706;41.844;26.082;2023-05-10T03:01:16;8.13;;;7.32;;
9334;SDS011;4706;41.844;26.082;2023-05-10T03:03:42;7.95;;;6.95;;
9334;SDS011;4706;41.844;26.082;2023-05-10T03:06:08;8.10;;;7.30;;
9334;SDS011;4706;41.844;26.082;2023-05-10T03:08:34;9.25;;;7.95;;
9334;SDS011;4706;41.844;26.082;2023-05-10T03:11:04;9.40;;;8.23;;
9334;SDS011;4706;41.844;26.082;2023-05-10T03:16:08;8.43;;;7.55;;
9334;SDS011;4706;41.844;26.082;2023-05-10T03:18:45;9.57;;;8.20;;
9334;SDS011;4706;41.844;26.082;2023-05-10T03:21:21;9.63;;;8.57;;
9334;SDS011;4706;41.844;26.082;2023-05-10T03:23:53;9.07;;;8.30;;
9334;SDS011;4706;41.844;26.082;2023-05-10T03:26:27;10.70;;;8.23;;
9334;SDS011;4706;41.844;26.082;2023-05-10T03:28:53;8.35;;;7.50;;
9334;SDS011;4706;41.844;26.082;2023-05-10T03:31:20;10.90;;;7.30;;
9334;SDS011;4706;41.844;26.082;2023-05-10T03:33:49;10.32;;;6.50;;
9334;SDS011;4706;41.844;26.082;2023-05-10T03:36:15;8.77;;;6.82;;
9334;SDS011;4706;41.844;26.082;2023-05-10T03:38:41;8.45;;;6.95;;
9334;SDS011;4706;41.844;26.082;2023-05-10T03:41:07;7.88;;;6.88;;
9334;SDS011;4706;41.844;26.082;2023-05-10T03:43:32;8.52;;;6.70;;
9334;SDS011;4706;41.844;26.082;2023-05-10T03:45:57;9.40;;;7.03;;
9334;SDS011;4706;41.844;26.082;2023-05-10T03:48:23;7.43;;;6.55;;
9334;SDS011;4706;41.844;26.082;2023-05-10T03:50:49;7.72;;;6.82;;
9334;SDS011;4706;41.844;26.082;2023-05-10T03:53:14;6.40;;;5.90;;
9334;SDS011;4706;41.844;26.082;2023-05-10T03:55:40;9.07;;;7.00;;
9334;SDS011;4706;41.844;26.082;2023-05-10T03:58:06;9.13;;;8.23;;
9334;SDS011;4706;41.844;26.082;2023-05-10T04:00:31;11.65;;;9.13;;
9334;SDS011;4706;41.844;26.082;2023-05-10T04:02:57;26.58;;;17.40;;
9334;SDS011;4706;41.844;26.082;2023-05-10T04:05:23;28.20;;;17.27;;
9334;SDS011;4706;41.844;26.082;2023-05-10T04:07:48;44.17;;;25.60;;
9334;SDS011;4706;41.844;26.082;2023-05-10T04:10:14;39.08;;;22.73;;
9334;SDS011;4706;41.844;26.082;2023-05-10T04:12:41;28.73;;;16.63;;
9334;SDS011;4706;41.844;26.082;2023-05-10T04:15:07;16.13;;;11.68;;
9334;SDS011;4706;41.844;26.082;2023-05-10T04:17:33;11.85;;;9.20;;
9334;SDS011;4706;41.844;26.082;2023-05-10T04:19:59;9.77;;;7.45;;
9334;SDS011;4706;41.844;26.082;2023-05-10T04:22:24;11.70;;;7.03;;
9334;SDS011;4706;41.844;26.082;2023-05-10T04:24:50;8.32;;;6.80;;
9334;SDS011;4706;41.844;26.082;2023-05-10T04:27:15;9.43;;;6.70;;
9334;SDS011;4706;41.844;26.082;2023-05-10T04:29:41;9.23;;;6.70;;
9334;SDS011;4706;41.844;26.082;2023-05-10T04:32:06;6.60;;;6.00;;
9334;SDS011;4706;41.844;26.082;2023-05-10T04:34:33;6.78;;;5.82;;
9334;SDS011;4706;41.844;26.082;2023-05-10T04:36:59;7.75;;;6.25;;
9334;SDS011;4706;41.844;26.082;2023-05-10T04:39:24;13.57;;;7.78;;
9334;SDS011;4706;41.844;26.082;2023-05-10T04:41:50;10.45;;;6.53;;
9334;SDS011;4706;41.844;26.082;2023-05-10T04:44:15;9.02;;;6.15;;
9334;SDS011;4706;41.844;26.082;2023-05-10T04:46:41;7.82;;;6.13;;
9334;SDS011;4706;41.844;26.082;2023-05-10T04:49:07;6.85;;;5.88;;
9334;SDS011;4706;41.844;26.082;2023-05-10T04:51:32;8.73;;;5.25;;
9334;SDS011;4706;41.844;26.082;2023-05-10T04:53:58;13.82;;;8.52;;
9334;SDS011;4706;41.844;26.082;2023-05-10T04:56:23;18.65;;;6.93;;
9334;SDS011;4706;41.844;26.082;2023-05-10T04:58:49;15.05;;;6.15;;
9334;SDS011;4706;41.844;26.082;2023-05-10T05:01:15;8.80;;;5.70;;
9334;SDS011;4706;41.844;26.082;2023-05-10T05:03:40;9.45;;;5.55;;
9334;SDS011;4706;41.844;26.082;2023-05-10T05:06:06;8.40;;;5.70;;
9334;SDS011;4706;41.844;26.082;2023-05-10T05:08:32;6.80;;;5.05;;
9334;SDS011;4706;41.844;26.082;2023-05-10T05:10:57;4.95;;;4.40;;
9334;SDS011;4706;41.844;26.082;2023-05-10T05:13:22;5.80;;;4.40;;
9334;SDS011;4706;41.844;26.082;2023-05-10T05:15:48;6.57;;;4.25;;
9334;SDS011;4706;41.844;26.082;2023-05-10T05:18:13;7.32;;;4.70;;
9334;SDS011;4706;41.844;26.082;2023-05-10T05:20:39;4.95;;;4.43;;
9334;SDS011;4706;41.844;26.082;2023-05-10T05:23:04;7.97;;;4.15;;
9334;SDS011;4706;41.844;26.082;2023-05-10T05:25:30;6.78;;;4.82;;
9334;SDS011;4706;41.844;26.082;2023-05-10T05:27:56;6.00;;;4.25;;
9334;SDS011;4706;41.844;26.082;2023-05-10T05:30:21;4.10;;;3.70;;
9334;SDS011;4706;41.844;26.082;2023-05-10T05:32:47;4.60;;;3.05;;
9334;SDS011;4706;41.844;26.082;2023-05-10T05:35:12;3.78;;;3.35;;
9334;SDS011;4706;41.844;26.082;2023-05-10T05:37:38;4.75;;;3.08;;
9334;SDS011;4706;41.844;26.082;2023-05-10T05:40:04;5.28;;;4.47;;
9334;SDS011;4706;41.844;26.082;2023-05-10T05:42:30;4.40;;;3.05;;
9334;SDS011;4706;41.844;26.082;2023-05-10T05:44:56;5.50;;;2.97;;
9334;SDS011;4706;41.844;26.082;2023-05-10T05:47:21;6.53;;;2.63;;
9334;SDS011;4706;41.844;26.082;2023-05-10T05:49:47;2.90;;;2.53;;
9334;SDS011;4706;41.844;26.082;2023-05-10T05:52:12;4.28;;;3.10;;
9334;SDS011;4706;41.844;26.082;2023-05-10T05:54:38;3.53;;;2.60;;
9334;SDS011;4706;41.844;26.082;2023-05-10T05:57:03;3.72;;;2.33;;
9334;SDS011;4706;41.844;26.082;2023-05-10T05:59:29;4.47;;;2.70;;
9334;SDS011;4706;41.844;26.082;2023-05-10T06:01:54;3.35;;;3.03;;
9334;SDS011;4706;41.844;26.082;2023-05-10T06:04:20;6.93;;;3.60;;
9334;SDS011;4706;41.844;26.082;2023-05-10T06:06:46;2.92;;;2.65;;
9334;SDS011;4706;41.844;26.082;2023-05-10T06:09:11;2.70;;;2.50;;
9334;SDS011;4706;41.844;26.082;2023-05-10T06:11:37;6.05;;;3.05;;
9334;SDS011;4706;41.844;26.082;2023-05-10T06:14:03;3.97;;;2.63;;
9334;SDS011;4706;41.844;26.082;2023-05-10T06:16:29;3.40;;;2.97;;
9334;SDS011;4706;41.844;26.082;2023-05-10T06:18:55;3.90;;;3.00;;
9334;SDS011;4706;41.844;26.082;2023-05-10T06:21:21;4.15;;;3.03;;
9334;SDS011;4706;41.844;26.082;2023-05-10T06:23:47;3.50;;;2.70;;
9334;SDS011;4706;41.844;26.082;2023-05-10T06:26:12;4.30;;;3.50;;
9334;SDS011;4706;41.844;26.082;2023-05-10T06:28:38;3.40;;;2.78;;
9334;SDS011;4706;41.844;26.082;2023-05-10T06:31:05;8.05;;;3.00;;
9334;SDS011;4706;41.844;26.082;2023-05-10T06:33:31;3.78;;;2.78;;
9334;SDS011;4706;41.844;26.082;2023-05-10T06:35:57;4.00;;;3.10;;
9334;SDS011;4706;41.844;26.082;2023-05-10T06:38:23;3.95;;;2.90;;
9334;SDS011;4706;41.844;26.082;2023-05-10T06:40:49;6.38;;;3.80;;
9334;SDS011;4706;41.844;26.082;2023-05-10T06:43:14;4.32;;;3.80;;
9334;SDS011;4706;41.844;26.082;2023-05-10T06:45:40;5.95;;;3.67;;
9334;SDS011;4706;41.844;26.082;2023-05-10T06:48:06;3.55;;;3.25;;
9334;SDS011;4706;41.844;26.082;2023-05-10T06:50:31;4.15;;;3.08;;
9334;SDS011;4706;41.844;26.082;2023-05-10T06:52:58;7.43;;;3.75;;
9334;SDS011;4706;41.844;26.082;2023-05-10T06:55:24;5.05;;;3.60;;
9334;SDS011;4706;41.844;26.082;2023-05-10T06:57:49;7.50;;;5.03;;
9334;SDS011;4706;41.844;26.082;2023-05-10T07:00:16;4.25;;;3.10;;
9334;SDS011;4706;41.844;26.082;2023-05-10T07:02:42;3.55;;;2.92;;
9334;SDS011;4706;41.844;26.082;2023-05-10T07:05:08;3.15;;;2.63;;
9334;SDS011;4706;41.844;26.082;2023-05-10T07:07:33;3.33;;;2.75;;
9334;SDS011;4706;41.844;26.082;2023-05-10T07:09:59;7.15;;;2.97;;
9334;SDS011;4706;41.844;26.082;2023-05-10T07:12:24;4.95;;;2.97;;
9334;SDS011;4706;41.844;26.082;2023-05-10T07:14:50;4.97;;;3.13;;
9334;SDS011;4706;41.844;26.082;2023-05-10T07:17:15;3.30;;;3.00;;
9334;SDS011;4706;41.844;26.082;2023-05-10T07:19:41;3.03;;;2.80;;
9334;SDS011;4706;41.844;26.082;2023-05-10T07:22:06;4.85;;;2.65;;
9334;SDS011;4706;41.844;26.082;2023-05-10T07:24:32;2.88;;;2.53;;
9334;SDS011;4706;41.844;26.082;2023-05-10T07:26:59;4.60;;;3.25;;
9334;SDS011;4706;41.844;26.082;2023-05-10T07:29:24;2.95;;;2.40;;
9334;SDS011;4706;41.844;26.082;2023-05-10T07:31:50;3.08;;;2.55;;
9334;SDS011;4706;41.844;26.082;2023-05-10T07:34:15;3.47;;;2.67;;
9334;SDS011;4706;41.844;26.082;2023-05-10T07:36:41;4.47;;;2.80;;
9334;SDS011;4706;41.844;26.082;2023-05-10T07:39:06;2.78;;;2.55;;
9334;SDS011;4706;41.844;26.082;2023-05-10T07:41:32;2.95;;;2.70;;
9334;SDS011;4706;41.844;26.082;2023-05-10T07:43:58;3.15;;;2.83;;
9334;SDS011;4706;41.844;26.082;2023-05-10T07:46:23;4.05;;;2.95;;
9334;SDS011;4706;41.844;26.082;2023-05-10T07:48:49;3.13;;;2.65;;
9334;SDS011;4706;41.844;26.082;2023-05-10T07:51:14;4.75;;;3.72;;
9334;SDS011;4706;41.844;26.082;2023-05-10T07:53:40;6.03;;;5.43;;
9334;SDS011;4706;41.844;26.082;2023-05-10T07:58:48;2.42;;;2.15;;
9334;SDS011;4706;41.844;26.082;2023-05-10T08:01:13;3.03;;;2.33;;
9334;SDS011;4706;41.844;26.082;2023-05-10T08:03:39;3.90;;;2.78;;
9334;SDS011;4706;41.844;26.082;2023-05-10T08:06:05;3.20;;;2.55;;
9334;SDS011;4706;41.844;26.082;2023-05-10T08:08:31;3.42;;;2.45;;
9334;SDS011;4706;41.844;26.082;2023-05-10T08:10:56;3.28;;;2.42;;
9334;SDS011;4706;41.844;26.082;2023-05-10T08:13:21;6.97;;;3.25;;
9334;SDS011;4706;41.844;26.082;2023-05-10T08:15:47;4.47;;;3.28;;
9334;SDS011;4706;41.844;26.082;2023-05-10T08:18:13;6.22;;;2.72;;
9334;SDS011;4706;41.844;26.082;2023-05-10T08:20:38;3.15;;;2.70;;
9334;SDS011;4706;41.844;26.082;2023-05-10T08:23:04;4.32;;;2.80;;
9334;SDS011;4706;41.844;26.082;2023-05-10T08:25:31;3.05;;;2.80;;
9334;SDS011;4706;41.844;26.082;2023-05-10T08:27:56;3.53;;;2.72;;
9334;SDS011;4706;41.844;26.082;2023-05-10T08:30:22;3.20;;;2.90;;
9334;SDS011;4706;41.844;26.082;2023-05-10T08:32:47;4.97;;;2.90;;
9334;SDS011;4706;41.844;26.082;2023-05-10T08:35:13;3.22;;;2.50;;
9334;SDS011;4706;41.844;26.082;2023-05-10T08:37:38;4.95;;;2.90;;
9334;SDS011;4706;41.844;26.082;2023-05-10T08:40:04;4.15;;;2.60;;
9334;SDS011;4706;41.844;26.082;2023-05-10T08:42:30;4.13;;;2.80;;
9334;SDS011;4706;41.844;26.082;2023-05-10T08:45:00;3.30;;;3.00;;
9334;SDS011;4706;41.844;26.082;2023-05-10T08:47:28;4.22;;;3.20;;
9334;SDS011;4706;41.844;26.082;2023-05-10T08:49:54;4.50;;;3.10;;
9334;SDS011;4706;41.844;26.082;2023-05-10T08:52:21;17.23;;;15.43;;
9334;SDS011;4706;41.844;26.082;2023-05-10T08:54:49;25.58;;;22.77;;
9334;SDS011;4706;41.844;26.082;2023-05-10T08:57:15;4.07;;;3.30;;
9334;SDS011;4706;41.844;26.082;2023-05-10T08:59:41;4.13;;;2.10;;
9334;SDS011;4706;41.844;26.082;2023-05-10T09:02:06;5.45;;;2.90;;
9334;SDS011;4706;41.844;26.082;2023-05-10T09:04:35;4.32;;;3.80;;
9334;SDS011;4706;41.844;26.082;2023-05-10T09:07:00;4.45;;;2.58;;
9334;SDS011;4706;41.844;26.082;2023-05-10T09:09:26;5.65;;;2.88;;
9334;SDS011;4706;41.844;26.082;2023-05-10T09:11:53;3.67;;;2.70;;
9334;SDS011;4706;41.844;26.082;2023-05-10T09:14:19;4.57;;;2.80;;
9334;SDS011;4706;41.844;26.082;2023-05-10T09:16:45;2.60;;;2.40;;
9334;SDS011;4706;41.844;26.082;2023-05-10T09:19:11;5.32;;;2.85;;
9334;SDS011;4706;41.844;26.082;2023-05-10T09:21:37;4.30;;;2.22;;
9334;SDS011;4706;41.844;26.082;2023-05-10T09:24:06;3.83;;;3.20;;
9334;SDS011;4706;41.844;26.082;2023-05-10T09:26:32;5.40;;;3.42;;
9334;SDS011;4706;41.844;26.082;2023-05-10T09:29:00;5.03;;;3.70;;
9334;SDS011;4706;41.844;26.082;2023-05-10T09:34:15;4.57;;;3.33;;
9334;SDS011;4706;41.844;26.082;2023-05-10T09:36:58;4.47;;;3.05;;
9334;SDS011;4706;41.844;26.082;2023-05-10T09:39:38;2.63;;;2.20;;
9334;SDS011;4706;41.844;26.082;2023-05-10T09:42:05;3.50;;;2.58;;
9334;SDS011;4706;41.844;26.082;2023-05-10T09:44:32;4.18;;;3.00;;
9334;SDS011;4706;41.844;26.082;2023-05-10T09:46:59;4.30;;;2.95;;
9334;SDS011;4706;41.844;26.082;2023-05-10T09:49:26;4.05;;;2.70;;
9334;SDS011;4706;41.844;26.082;2023-05-10T09:52:01;2.83;;;2.58;;
9334;SDS011;4706;41.844;26.082;2023-05-10T09:54:28;4.45;;;3.05;;
9334;SDS011;4706;41.844;26.082;2023-05-10T09:56:53;3.95;;;3.55;;
9334;SDS011;4706;41.844;26.082;2023-05-10T09:59:19;4.38;;;2.80;;
9334;SDS011;4706;41.844;26.082;2023-05-10T10:01:51;7.15;;;3.30;;
9334;SDS011;4706;41.844;26.082;2023-05-10T10:04:17;3.10;;;2.80;;
9334;SDS011;4706;41.844;26.082;2023-05-10T10:06:45;5.68;;;2.85;;
9334;SDS011;4706;41.844;26.082;2023-05-10T10:09:10;4.03;;;2.85;;
9334;SDS011;4706;41.844;26.082;2023-05-10T10:11:36;18.58;;;17.02;;
9334;SDS011;4706;41.844;26.082;2023-05-10T10:14:03;3.40;;;2.65;;
9334;SDS011;4706;41.844;26.082;2023-05-10T10:16:30;5.07;;;3.28;;
9334;SDS011;4706;41.844;26.082;2023-05-10T10:18:56;15.80;;;14.63;;
9334;SDS011;4706;41.844;26.082;2023-05-10T10:21:22;4.85;;;3.20;;
9334;SDS011;4706;41.844;26.082;2023-05-10T10:23:48;33.30;;;11.02;;
9334;SDS011;4706;41.844;26.082;2023-05-10T10:26:14;4.13;;;2.60;;
9334;SDS011;4706;41.844;26.082;2023-05-10T10:31:32;4.05;;;2.88;;
9334;SDS011;4706;41.844;26.082;2023-05-10T10:34:11;3.33;;;3.00;;
9334;SDS011;4706;41.844;26.082;2023-05-10T10:36:50;5.90;;;3.08;;
9334;SDS011;4706;41.844;26.082;2023-05-10T10:39:15;4.50;;;2.58;;
9334;SDS011;4706;41.844;26.082;2023-05-10T10:41:55;4.82;;;2.80;;
9334;SDS011;4706;41.844;26.082;2023-05-10T10:52:14;5.35;;;2.28;;
9334;SDS011;4706;41.844;26.082;2023-05-10T10:57:55;3.05;;;2.75;;
9334;SDS011;4706;41.844;26.082;2023-05-10T11:07:53;5.47;;;2.85;;
9334;SDS011;4706;41.844;26.082;2023-05-10T11:10:20;2.55;;;2.35;;
9334;SDS011;4706;41.844;26.082;2023-05-10T11:13:01;4.97;;;2.72;;
9334;SDS011;4706;41.844;26.082;2023-05-10T11:15:48;8.27;;;3.33;;
9334;SDS011;4706;41.844;26.082;2023-05-10T11:18:19;3.35;;;2.22;;
9334;SDS011;4706;41.844;26.082;2023-05-10T11:23:20;3.45;;;2.20;;
9334;SDS011;4706;41.844;26.082;2023-05-10T11:25:47;2.20;;;2.00;;
9334;SDS011;4706;41.844;26.082;2023-05-10T11:28:13;2.10;;;1.90;;
9334;SDS011;4706;41.844;26.082;2023-05-10T11:30:40;4.82;;;2.08;;
9334;SDS011;4706;41.844;26.082;2023-05-10T11:33:07;2.22;;;2.00;;
9334;SDS011;4706;41.844;26.082;2023-05-10T11:35:39;3.08;;;2.10;;
9334;SDS011;4706;41.844;26.082;2023-05-10T11:38:12;2.85;;;2.17;;
9334;SDS011;4706;41.844;26.082;2023-05-10T11:40:40;2.40;;;2.10;;
9334;SDS011;4706;41.844;26.082;2023-05-10T11:43:06;2.65;;;2.00;;
9334;SDS011;4706;41.844;26.082;2023-05-10T11:45:34;3.00;;;2.40;;
9334;SDS011;4706;41.844;26.082;2023-05-10T11:48:00;3.83;;;2.50;;
9334;SDS011;4706;41.844;26.082;2023-05-10T11:50:27;3.78;;;2.22;;
9334;SDS011;4706;41.844;26.082;2023-05-10T11:52:54;2.90;;;2.35;;
9334;SDS011;4706;41.844;26.082;2023-05-10T11:55:21;3.60;;;2.45;;
9334;SDS011;4706;41.844;26.082;2023-05-10T11:57:47;2.72;;;2.17;;
9334;SDS011;4706;41.844;26.082;2023-05-10T12:00:13;1.98;;;1.80;;
9334;SDS011;4706;41.844;26.082;2023-05-10T12:02:39;3.88;;;1.85;;
9334;SDS011;4706;41.844;26.082;2023-05-10T12:05:05;2.25;;;1.50;;
9334;SDS011;4706;41.844;26.082;2023-05-10T12:07:31;2.85;;;2.10;;
9334;SDS011;4706;41.844;26.082;2023-05-10T12:12:37;2.33;;;1.77;;
9334;SDS011;4706;41.844;26.082;2023-05-10T12:15:11;1.80;;;1.70;;
9334;SDS011;4706;41.844;26.082;2023-05-10T12:17:45;2.53;;;1.90;;
9334;SDS011;4706;41.844;26.082;2023-05-10T12:20:20;2.40;;;1.80;;
9334;SDS011;4706;41.844;26.082;2023-05-10T12:22:49;3.15;;;2.85;;
9334;SDS011;4706;41.844;26.082;2023-05-10T12:25:17;3.20;;;2.90;;
9334;SDS011;4706;41.844;26.082;2023-05-10T12:27:53;2.55;;;2.10;;
9334;SDS011;4706;41.844;26.082;2023-05-10T12:30:21;2.45;;;2.20;;
9334;SDS011;4706;41.844;26.082;2023-05-10T12:32:51;5.07;;;2.25;;
9334;SDS011;4706;41.844;26.082;2023-05-10T12:35:18;1.90;;;1.80;;
9334;SDS011;4706;41.844;26.082;2023-05-10T12:37:50;3.63;;;2.70;;
9334;SDS011;4706;41.844;26.082;2023-05-10T12:40:16;3.63;;;2.03;;
9334;SDS011;4706;41.844;26.082;2023-05-10T12:42:41;2.67;;;2.40;;
9334;SDS011;4706;41.844;26.082;2023-05-10T12:45:08;2.58;;;2.00;;
9334;SDS011;4706;41.844;26.082;2023-05-10T12:47:34;3.25;;;2.10;;
9334;SDS011;4706;41.844;26.082;2023-05-10T12:50:00;2.05;;;1.92;;
9334;SDS011;4706;41.844;26.082;2023-05-10T12:52:27;2.75;;;2.15;;
9334;SDS011;4706;41.844;26.082;2023-05-10T12:54:52;3.65;;;2.60;;
9334;SDS011;4706;41.844;26.082;2023-05-10T12:57:19;3.00;;;2.15;;
9334;SDS011;4706;41.844;26.082;2023-05-10T12:59:46;3.92;;;2.30;;
9334;SDS011;4706;41.844;26.082;2023-05-10T13:02:11;3.67;;;2.22;;
9334;SDS011;4706;41.844;26.082;2023-05-10T13:04:37;2.38;;;2.17;;
9334;SDS011;4706;41.844;26.082;2023-05-10T13:07:07;2.50;;;2.10;;
9334;SDS011;4706;41.844;26.082;2023-05-10T13:09:33;2.35;;;1.92;;
9334;SDS011;4706;41.844;26.082;2023-05-10T13:11:58;4.40;;;2.10;;
9334;SDS011;4706;41.844;26.082;2023-05-10T13:14:24;1.85;;;1.63;;
9334;SDS011;4706;41.844;26.082;2023-05-10T13:16:50;3.17;;;2.10;;
9334;SDS011;4706;41.844;26.082;2023-05-10T13:19:15;2.28;;;2.08;;
9334;SDS011;4706;41.844;26.082;2023-05-10T13:21:41;2.75;;;1.77;;
9334;SDS011;4706;41.844;26.082;2023-05-10T13:24:07;2.22;;;2.03;;
9334;SDS011;4706;41.844;26.082;2023-05-10T13:26:33;3.45;;;2.13;;
9334;SDS011;4706;41.844;26.082;2023-05-10T13:28:58;2.05;;;1.85;;
9334;SDS011;4706;41.844;26.082;2023-05-10T13:31:24;2.03;;;1.80;;
9334;SDS011;4706;41.844;26.082;2023-05-10T13:33:50;2.63;;;2.30;;
9334;SDS011;4706;41.844;26.082;2023-05-10T13:36:15;2.72;;;2.00;;
9334;SDS011;4706;41.844;26.082;2023-05-10T13:38:41;3.42;;;1.90;;
9334;SDS011;4706;41.844;26.082;2023-05-10T13:41:06;4.60;;;2.20;;
9334;SDS011;4706;41.844;26.082;2023-05-10T13:43:32;2.17;;;1.85;;
9334;SDS011;4706;41.844;26.082;2023-05-10T13:45:57;2.55;;;2.03;;
9334;SDS011;4706;41.844;26.082;2023-05-10T13:48:23;4.18;;;2.20;;
9334;SDS011;4706;41.844;26.082;2023-05-10T13:50:48;2.40;;;2.20;;
9334;SDS011;4706;41.844;26.082;2023-05-10T13:53:13;3.40;;;2.10;;
9334;SDS011;4706;41.844;26.082;2023-05-10T13:59:01;3.13;;;2.50;;
9334;SDS011;4706;41.844;26.082;2023-05-10T14:01:26;6.28;;;2.40;;
9334;SDS011;4706;41.844;26.082;2023-05-10T14:03:52;2.78;;;2.50;;
9334;SDS011;4706;41.844;26.082;2023-05-10T14:06:17;3.85;;;2.58;;
9334;SDS011;4706;41.844;26.082;2023-05-10T14:08:43;3.72;;;2.50;;
9334;SDS011;4706;41.844;26.082;2023-05-10T14:11:08;2.40;;;2.30;;
9334;SDS011;4706;41.844;26.082;2023-05-10T14:13:34;3.17;;;2.45;;
9334;SDS011;4706;41.844;26.082;2023-05-10T14:16:00;3.75;;;3.03;;
9334;SDS011;4706;41.844;26.082;2023-05-10T14:18:28;3.10;;;2.75;;
9334;SDS011;4706;41.844;26.082;2023-05-10T14:20:54;3.85;;;2.30;;
9334;SDS011;4706;41.844;26.082;2023-05-10T14:23:21;2.80;;;2.20;;
9334;SDS011;4706;41.844;26.082;2023-05-10T14:25:52;2.17;;;2.05;;
9334;SDS011;4706;41.844;26.082;2023-05-10T14:28:18;2.45;;;2.25;;
9334;SDS011;4706;41.844;26.082;2023-05-10T14:30:45;3.72;;;2.40;;
9334;SDS011;4706;41.844;26.082;2023-05-10T14:33:11;2.58;;;2.25;;
9334;SDS011;4706;41.844;26.082;2023-05-10T14:35:37;3.75;;;2.25;;
9334;SDS011;4706;41.844;26.082;2023-05-10T14:38:03;3.03;;;2.33;;
9334;SDS011;4706;41.844;26.082;2023-05-10T14:40:28;2.90;;;2.50;;
9334;SDS011;4706;41.844;26.082;2023-05-10T14:42:54;3.17;;;2.30;;
9334;SDS011;4706;41.844;26.082;2023-05-10T14:45:23;2.78;;;2.03;;
9334;SDS011;4706;41.844;26.082;2023-05-10T14:47:48;3.78;;;2.22;;
9334;SDS011;4706;41.844;26.082;2023-05-10T14:50:15;4.18;;;2.30;;
9334;SDS011;4706;41.844;26.082;2023-05-10T14:56:01;4.32;;;2.28;;
9334;SDS011;4706;41.844;26.082;2023-05-10T14:58:27;2.30;;;2.10;;
9334;SDS011;4706;41.844;26.082;2023-05-10T15:00:53;2.63;;;2.13;;
9334;SDS011;4706;41.844;26.082;2023-05-10T15:03:19;4.13;;;2.70;;
9334;SDS011;4706;41.844;26.082;2023-05-10T15:05:44;4.07;;;3.13;;
9334;SDS011;4706;41.844;26.082;2023-05-10T15:08:10;5.85;;;5.30;;
9334;SDS011;4706;41.844;26.082;2023-05-10T15:10:37;2.40;;;2.20;;
9334;SDS011;4706;41.844;26.082;2023-05-10T15:13:04;2.80;;;2.55;;
9334;SDS011;4706;41.844;26.082;2023-05-10T15:15:29;3.70;;;2.67;;
9334;SDS011;4706;41.844;26.082;2023-05-10T15:17:55;3.13;;;2.70;;
9334;SDS011;4706;41.844;26.082;2023-05-10T15:20:21;3.05;;;2.58;;
9334;SDS011;4706;41.844;26.082;2023-05-10T15:22:46;3.72;;;2.50;;
9334;SDS011;4706;41.844;26.082;2023-05-10T15:25:12;3.08;;;2.38;;
9334;SDS011;4706;41.844;26.082;2023-05-10T15:27:38;4.22;;;2.75;;
9334;SDS011;4706;41.844;26.082;2023-05-10T15:30:04;2.25;;;2.05;;
9334;SDS011;4706;41.844;26.082;2023-05-10T15:32:30;3.13;;;2.63;;
9334;SDS011;4706;41.844;26.082;2023-05-10T15:34:55;3.75;;;2.65;;
9334;SDS011;4706;41.844;26.082;2023-05-10T15:37:21;4.47;;;2.85;;
9334;SDS011;4706;41.844;26.082;2023-05-10T15:39:48;2.90;;;2.70;;
9334;SDS011;4706;41.844;26.082;2023-05-10T15:42:14;4.28;;;3.30;;
9334;SDS011;4706;41.844;26.082;2023-05-10T15:44:39;7.25;;;5.70;;
9334;SDS011;4706;41.844;26.082;2023-05-10T15:47:05;3.50;;;2.60;;
9334;SDS011;4706;41.844;26.082;2023-05-10T15:49:31;2.92;;;2.70;;
9334;SDS011;4706;41.844;26.082;2023-05-10T15:51:57;2.80;;;2.60;;